Latest Weather Observations for Richmond

IDQ60801

Issued at 8:02 am EST Friday 23 June 2017 (issued every 30 minutes, with the page automatically refreshed every 10 minutes)

About weather observations | Map of weather stations | Latest weather observations for QLD | Other Formats
Station Details ID: 030161 Name: RICHMOND AIRPORT Lat: -20.70 Lon: 143.12 Height: 206.3 m
Data from the previous 72 hours. | See also: Recent months at Richmond
Date/Time
EST
Temp
°C
App
Temp
°C
Dew
Point
°C
Rel
Hum
%
Delta-T
°C
Wind Press
QNH
hPa
Press
MSL
hPa
Rain since
9am
mm
Dir  Spd
km/h
Gust
km/h
Spd
kts
Gust
kts
23/08:00am 13.7 11.4 9.0 73 2.4 E 11 13 6 7 1019.6 1019.1 0.0
23/07:30am 11.6 8.6 7.9 78 1.8 E 13 13 7 7 1019.3 1018.9 0.0
23/07:00am 11.8 8.8 7.9 77 1.9 E 13 15 7 8 1018.9 1018.4 0.0
23/06:30am 11.9 8.5 7.8 76 2.0 E 15 17 8 9 1018.5 1018.0 0.0
23/06:00am 12.0 9.0 7.5 74 2.2 E 13 15 7 8 1018.4 1017.9 0.0
23/05:30am 12.1 9.0 7.2 72 2.4 E 13 15 7 8 1018.3 1017.8 0.0
23/05:00am 12.0 8.7 6.5 69 2.6 E 13 13 7 7 1018.3 1017.8 0.0
23/04:30am 12.3 8.7 6.6 68 2.7 E 15 15 8 8 1018.3 1017.8 0.0
23/04:00am 12.3 9.3 6.1 66 2.9 ESE 11 11 6 6 1018.3 1017.8 0.0
23/03:30am 12.5 9.1 5.9 64 3.1 ESE 13 13 7 7 1018.3 1017.8 0.0
23/03:00am 13.0 9.2 5.9 62 3.4 ESE 15 24 8 13 1018.3 1017.8 0.0
23/02:30am 12.7 9.2 5.6 62 3.4 ESE 13 15 7 8 1018.4 1017.9 0.0
23/02:00am 12.2 9.1 3.4 55 3.9 ESE 9 9 5 5 1018.5 1018.0 0.0
23/01:30am 12.5 9.8 2.4 50 4.4 ESE 6 7 3 4 1018.6 1018.1 0.0
23/01:00am 14.7 11.0 4.7 51 4.7 ESE 13 15 7 8 1018.6 1018.1 0.0
23/12:30am 15.4 11.3 4.2 47 5.2 ESE 15 17 8 9 1018.7 1018.2 0.0
23/12:00am 16.4 11.9 4.1 44 5.8 ESE 17 20 9 11 1018.8 1018.3 0.0
 
Date/Time
EST
Temp
°C
App
Temp
°C
Dew
Point
°C
Rel
Hum
%
Delta-T
°C
Wind Press
QNH
hPa
Press
MSL
hPa
Rain since
9am
mm
Dir  Spd
km/h
Gust
km/h
Spd
kts
Gust
kts
22/11:30pm 16.8 12.2 3.8 42 6.1 ESE 17 19 9 10 1018.9 1018.4 0.0
22/11:00pm 16.9 12.2 3.2 40 6.3 SE 17 22 9 12 1019.1 1018.6 0.0
22/10:30pm 18.1 12.8 3.2 37 7.0 SE 20 26 11 14 1019.2 1018.7 0.0
22/10:00pm 17.8 12.1 2.9 37 6.9 SSE 22 26 12 14 1019.2 1018.7 0.0
22/09:30pm 15.1 9.8 1.6 40 6.0 SSE 19 20 10 11 1019.3 1018.9 0.0
22/09:00pm 16.1 10.7 2.2 39 6.3 SSE 20 22 11 12 1019.2 1018.7 0.0
22/08:30pm 16.1 10.7 1.4 37 6.5 SSE 19 20 10 11 1019.0 1018.5 0.0
22/08:00pm 17.0 12.1 1.8 36 6.8 SE 17 19 9 10 1018.7 1018.2 0.0
22/07:30pm 17.1 12.2 1.9 36 6.9 SSE 17 19 9 10 1018.3 1017.8 0.0
22/07:00pm 17.6 12.6 1.2 33 7.3 SSE 17 19 9 10 1018.0 1017.5 0.0
22/06:30pm 20.8 16.5 3.1 31 8.5 SE 15 19 8 10 1017.6 1017.1 0.0
22/06:00pm 21.9 17.5 2.6 28 9.2 SE 15 17 8 9 1017.3 1016.8 0.0
22/05:30pm 25.0 20.3 3.0 24 10.8 SE 17 22 9 12 1017.1 1016.6 0.0
22/05:00pm 26.2 21.6 3.5 23 11.3 ESE 17 22 9 12 1016.9 1016.4 0.0
22/04:30pm 26.7 21.8 3.9 23 11.5 SE 19 24 10 13 1016.9 1016.4 0.0
22/04:00pm 27.3 22.3 4.4 23 11.7 SSE 20 30 11 16 1016.9 1016.4 0.0
22/03:30pm 27.4 23.4 5.1 24 11.6 SE 15 30 8 16 1017.1 1016.6 0.0
22/03:00pm 27.2 22.3 4.9 24 11.5 SE 20 33 11 18 1017.2 1016.7 0.0
22/02:30pm 27.3 22.7 5.6 25 11.3 ESE 19 26 10 14 1017.7 1017.2 0.0
22/02:00pm 27.1 23.4 6.5 27 10.9 SE 15 26 8 14 1018.1 1017.6 0.0
22/01:30pm 26.2 22.6 6.8 29 10.3 SE 15 24 8 13 1018.6 1018.1 0.0
22/01:00pm 26.7 22.8 7.2 29 10.4 ESE 17 24 9 13 1019.2 1018.7 0.0
22/12:30pm 25.5 22.6 8.1 33 9.4 ENE 13 22 7 12 1019.7 1019.2 0.0
22/12:00pm 24.9 22.4 9.6 38 8.4 E 13 22 7 12 1020.4 1019.9 0.0
22/11:30am 23.9 20.6 9.5 40 7.9 E 17 24 9 13 1020.9 1020.4 0.0
22/11:00am 23.7 21.0 10.4 43 7.4 ENE 15 24 8 13 1021.3 1020.8 0.0
22/10:30am 22.0 19.4 10.8 49 6.2 NE 15 20 8 11 1021.7 1021.2 0.0
22/10:00am 21.5 18.7 11.2 52 5.7 ENE 17 28 9 15 1021.8 1021.3 0.0
22/09:30am 19.8 17.0 10.0 53 5.3 E 15 19 8 10 1021.9 1021.4 0.0
22/09:00am 18.1 14.7 7.8 51 5.3 E 15 19 8 10 1021.7 1021.2 0.0
22/08:30am 16.1 12.9 6.8 54 4.6 ESE 13 17 7 9 1021.5 1021.0 0.0
22/08:00am 13.2 10.6 6.1 62 3.4 SE 9 13 5 7 1021.0 1020.5 0.0
22/07:30am 9.1 5.8 2.7 64 2.7 ESE 9 11 5 6 1020.8 1020.3 0.0
22/07:00am 11.2 8.0 5.1 66 2.8 E 11 11 6 6 1020.4 1019.9 0.0
22/06:30am 12.1 9.0 5.7 65 3.0 E 11 13 6 7 1020.1 1019.6 0.0
22/06:00am 10.6 7.2 4.1 64 2.9 ESE 11 11 6 6 1019.8 1019.3 0.0
22/05:30am 11.3 8.4 4.5 63 3.1 ESE 9 11 5 6 1019.7 1019.2 0.0
22/05:00am 11.4 7.7 4.6 63 3.1 ESE 13 15 7 8 1019.4 1019.0 0.0
22/04:30am 12.4 8.8 5.1 61 3.4 ESE 13 15 7 8 1019.4 1019.0 0.0
22/04:00am 12.0 8.3 4.2 59 3.5 ESE 13 15 7 8 1019.3 1018.9 0.0
22/03:30am 13.0 9.7 4.4 56 4.0 E 11 13 6 7 1019.2 1018.7 0.0
22/03:00am 13.9 10.4 5.3 56 4.1 E 13 15 7 8 1019.2 1018.7 0.0
22/02:30am 13.6 9.6 4.7 55 4.2 ESE 15 17 8 9 1019.4 1019.0 0.0
22/02:00am 13.6 9.5 4.5 54 4.2 ESE 15 15 8 8 1019.2 1018.7 0.0
22/01:30am 14.2 10.1 4.5 52 4.5 ESE 15 15 8 8 1019.2 1018.7 0.0
22/01:00am 15.0 11.3 4.4 49 5.0 ESE 13 13 7 7 1019.4 1019.0 0.0
22/12:30am 16.2 12.5 4.6 46 5.5 ESE 13 15 7 8 1019.4 1019.0 0.0
22/12:00am 18.1 14.1 5.0 42 6.4 E 15 19 8 10 1019.3 1018.9 0.0
 
Date/Time
EST
Temp
°C
App
Temp
°C
Dew
Point
°C
Rel
Hum
%
Delta-T
°C
Wind Press
QNH
hPa
Press
MSL
hPa
Rain since
9am
mm
Dir  Spd
km/h
Gust
km/h
Spd
kts
Gust
kts
21/11:30pm 18.8 13.8 4.6 39 6.9 ESE 20 24 11 13 1019.7 1019.2 0.0
21/11:00pm 19.7 14.0 5.0 38 7.2 ESE 24 30 13 16 1019.9 1019.4 0.0
21/10:30pm 20.1 14.0 5.0 37 7.4 ESE 26 32 14 17 1019.8 1019.3 0.0
21/10:00pm 20.1 14.4 5.0 37 7.4 ESE 24 33 13 18 1019.9 1019.4 0.0
21/09:30pm 20.3 14.6 5.1 37 7.5 ESE 24 33 13 18 1019.7 1019.2 0.0
21/09:00pm 20.7 15.4 5.1 36 7.7 ESE 22 30 12 16 1019.6 1019.1 0.0
21/08:30pm 21.9 16.8 5.8 35 8.2 ESE 22 30 12 16 1019.2 1018.7 0.0
21/08:00pm 21.9 17.5 6.6 37 7.9 SE 19 24 10 13 1018.7 1018.2 0.0
21/07:30pm 22.0 17.6 6.7 37 7.9 SE 19 22 10 12 1018.3 1017.8 0.0
21/07:00pm 22.3 18.1 7.3 38 7.8 SE 19 20 10 11 1017.9 1017.4 0.0
21/06:30pm 21.6 17.8 7.4 40 7.4 SE 17 17 9 9 1017.6 1017.1 0.0
21/06:00pm 24.0 20.2 7.6 35 8.7 ESE 17 20 9 11 1017.4 1016.9 0.0
21/05:30pm 25.9 21.8 8.0 32 9.7 ESE 19 24 10 13 1017.1 1016.6 0.0
21/05:00pm 26.9 22.5 8.8 32 10.0 ESE 22 30 12 16 1016.8 1016.3 0.0
21/04:30pm 27.6 23.6 9.0 31 10.3 ESE 20 30 11 16 1016.6 1016.1 0.0
21/04:00pm 27.6 23.6 9.0 31 10.3 ESE 20 32 11 17 1016.5 1016.0 0.0
21/03:30pm 28.0 24.2 9.8 32 10.2 ESE 20 30 11 16 1016.6 1016.1 0.0
21/03:00pm 28.1 25.3 9.9 32 10.3 ENE 15 28 8 15 1016.8 1016.3 0.0
21/02:30pm 27.4 23.1 9.3 32 10.1 SE 22 33 12 18 1017.2 1016.7 0.0
21/02:00pm 27.3 23.6 10.1 34 9.7 E 20 32 11 17 1017.5 1017.0 0.0
21/01:30pm 26.7 23.1 10.4 36 9.2 E 20 32 11 17 1017.9 1017.4 0.0
21/01:00pm 26.9 23.4 11.0 37 9.1 E 20 33 11 18 1018.3 1017.8 0.0
21/12:30pm 26.2 21.9 10.8 38 8.7 ESE 24 37 13 20 1018.8 1018.3 0.0
21/12:00pm 25.8 21.2 11.2 40 8.3 E 26 43 14 23 1019.4 1019.0 0.0
21/11:30am 25.3 21.1 11.1 41 8.1 E 24 39 13 21 1020.0 1019.5 0.0
21/11:00am 23.9 18.8 11.9 47 6.8 E 30 41 16 22 1020.4 1019.9 0.0
21/10:30am 24.2 20.3 12.2 47 6.9 E 24 35 13 19 1020.7 1020.2 0.0
21/10:00am 22.4 19.0 11.2 49 6.3 E 20 35 11 19 1021.1 1020.6 0.0
21/09:30am 21.2 18.6 10.7 51 5.8 E 15 22 8 12 1021.2 1020.7 0.0
21/09:00am 18.8 15.1 9.3 54 5.0 E 19 24 10 13 1020.9 1020.4 0.0
21/08:30am 17.3 14.5 8.7 57 4.5 E 13 17 7 9 1020.7 1020.2 0.0
21/08:00am 13.6 10.8 6.9 64 3.3 E 11 13 6 7 1020.3 1019.8 0.0
21/07:30am 11.1 7.6 5.6 69 2.6 ESE 13 13 7 7 1019.8 1019.3 0.0
21/07:00am 10.7 7.2 5.3 69 2.5 E 13 15 7 8 1019.4 1019.0 0.0
21/06:30am 10.7 7.1 5.0 68 2.6 ESE 13 15 7 8 1019.2 1018.7 0.0
21/06:00am 10.8 7.1 4.7 66 2.8 ESE 13 15 7 8 1019.0 1018.5 0.0
21/05:30am 11.4 7.8 4.8 64 3.0 E 13 15 7 8 1018.6 1018.1 0.0
21/05:00am 11.6 8.4 5.0 64 3.0 E 11 13 6 7 1018.5 1018.0 0.0
21/04:30am 11.6 8.4 5.0 64 3.1 E 11 13 6 7 1018.5 1018.0 0.0
21/04:00am 11.2 8.0 4.9 65 2.9 ESE 11 17 6 9 1018.4 1017.9 0.0
21/03:30am 11.4 7.9 5.3 66 2.8 ESE 13 15 7 8 1018.3 1017.8 0.0
21/03:00am 9.8 6.1 2.6 61 3.1 SSE 11 13 6 7 1018.3 1017.8 0.0
21/02:30am 11.5 8.9 4.0 60 3.4 SE 7 7 4 4 1018.4 1017.9 0.0
21/02:00am 12.3 9.6 5.5 63 3.2 ENE 9 13 5 7 1018.5 1018.0 0.0
21/01:30am 11.2 8.2 2.2 54 3.9 ESE 7 9 4 5 1018.6 1018.1 0.0
21/01:00am 13.1 9.8 4.5 56 4.0 ESE 11 13 6 7 1018.6 1018.1 0.0
21/12:30am 14.0 10.4 5.1 55 4.2 ESE 13 15 7 8 1018.7 1018.2 0.0
21/12:00am 14.4 10.4 4.7 52 4.5 ESE 15 15 8 8 1018.9 1018.4 0.0
 
Date/Time
EST
Temp
°C
App
Temp
°C
Dew
Point
°C
Rel
Hum
%
Delta-T
°C
Wind Press
QNH
hPa
Press
MSL
hPa
Rain since
9am
mm
Dir  Spd
km/h
Gust
km/h
Spd
kts
Gust
kts
20/11:30pm 15.3 11.7 5.0 50 4.9 ESE 13 15 7 8 1019.1 1018.6 0.0
20/11:00pm 16.3 12.3 5.0 47 5.4 ESE 15 17 8 9 1019.2 1018.7 0.0
20/10:30pm 17.6 13.3 5.2 44 6.0 ESE 17 19 9 10 1019.1 1018.6 0.0
20/10:00pm 18.9 14.6 5.4 41 6.6 ESE 17 20 9 11 1019.0 1018.5 0.0
20/09:30pm 19.7 14.9 5.4 39 7.1 ESE 20 24 11 13 1018.9 1018.4 0.0
20/09:00pm 20.4 15.6 5.6 38 7.4 ESE 20 24 11 13 1018.7 1018.2 0.0
20/08:30pm 19.7 15.0 5.0 38 7.2 ESE 19 22 10 12 1018.3 1017.8 0.0
20/08:00pm 20.2 15.5 5.1 37 7.5 ESE 19 22 10 12 1018.1 1017.6 0.0
20/07:30pm 20.2 15.9 5.1 37 7.5 SE 17 20 9 11 1017.8 1017.3 0.0
20/07:00pm 19.5 15.0 4.4 37 7.3 SE 17 20 9 11 1017.4 1016.9 0.0
20/06:30pm 20.2 15.9 3.4 33 8.0 SE 15 17 8 9 1017.1 1016.6 0.0
20/06:00pm 22.5 18.3 3.6 29 9.2 SE 15 20 8 11 1016.9 1016.4 0.0
20/05:30pm 24.9 19.8 4.1 26 10.4 SE 20 26 11 14 1016.6 1016.1 0.0
20/05:00pm 26.1 21.0 4.0 24 11.1 SE 20 28 11 15 1016.5 1016.0 0.0
20/04:30pm 26.5 21.3 3.7 23 11.5 ESE 20 30 11 16 1016.4 1015.9 0.0
20/04:00pm 27.2 21.5 3.0 21 12.1 ESE 22 30 12 16 1016.3 1015.8 0.0
20/03:30pm 27.3 22.7 3.7 22 11.9 ESE 17 24 9 13 1016.2 1015.7 0.0
20/03:00pm 27.1 22.5 3.6 22 11.8 ESE 17 26 9 14 1016.5 1016.0 0.0
20/02:30pm 26.9 21.7 2.7 21 12.0 E 19 30 10 16 1016.7 1016.2 0.0
20/02:00pm 26.7 21.6 3.2 22 11.7 ESE 19 32 10 17 1017.1 1016.6 0.0
20/01:30pm 26.5 21.4 3.1 22 11.6 E 19 28 10 15 1017.3 1016.8 0.0
20/01:00pm 26.1 21.0 4.0 24 11.1 E 20 35 11 19 1017.7 1017.2 0.0
20/12:30pm 25.5 19.2 3.5 24 10.9 E 26 33 14 18 1018.1 1017.6 0.0
20/12:00pm 24.6 18.8 4.4 27 10.1 E 24 35 13 19 1018.6 1018.1 0.0
20/11:30am 24.5 19.3 5.3 29 9.8 E 22 32 12 17 1019.1 1018.6 0.0
20/11:00am 23.9 18.1 6.2 32 9.1 E 26 39 14 21 1019.4 1019.0 0.0
20/10:30am 23.1 17.0 6.4 34 8.6 E 28 39 15 21 1019.8 1019.3 0.0
20/10:00am 21.6 16.3 6.7 38 7.6 E 24 33 13 18 1020.1 1019.6 0.0
20/09:30am 20.0 15.4 5.6 39 7.2 E 19 24 10 13 1020.3 1019.8 0.0
20/09:00am 17.8 13.8 5.1 43 6.2 E 15 20 8 11 1020.3 1019.8 0.0
20/08:30am 14.8 10.9 3.6 47 5.2 E 13 17 7 9 1020.0 1019.5 0.0

Other Formats:

Comma delimited format used in spreadsheet applications
http://www.bom.gov.au/fwo/IDQ60801/IDQ60801.94341.axf

JavaScript Object Notation format (JSON) in row-major order
http://www.bom.gov.au/fwo/IDQ60801/IDQ60801.94341.json